Impacts METAR Board
IDs:

KORD - Chicago/O'Hare Intl, IL, US

Updated at: 1300 UTC 07 Jul 2020
Potential Impact None Slight Moderate High
Time 07/01Z 07/02Z 07/03Z 07/04Z 07/05Z 07/06Z 07/07Z 07/08Z 07/09Z 07/10Z 07/11Z 07/12Z 07/13Z
Temp88 86 85 84 83 81 81 79 79 78 77 81 85
Dewpt65 65 65 66 67 67 67 67 67 68 68 69 70
Altim29.94 29.95 29.97 29.98 29.98 29.97 29.96 29.95 29.95 29.96 29.97 29.98 29.99
VIS10 10 10 10 10 10 10 10 10 10 10 10 10
CIG200 -- -- -- -- -- -- -- -- -- -- -- --
CoverBKNSCTSCTFEWFEWCLRCLRCLRCLRCLRFEWSCTFEW
FltCatVFRVFRVFRVFRVFRVFRVFRVFRVFRVFRVFRVFRVFR
WX--------------------------
WDir100110100120022022024000270290300
WSpd7 5 4 3 0 3 4 4 0 0 3 3 3
WGst-- -- -- -- -- -- -- -- -- -- -- -- --
Raw hourly METARs
KORD 070051Z 10007KT 10SM SCT070 BKN200 31/18 A2994 RMK AO2 SLP133 T03110183
KORD 070151Z 11005KT 10SM FEW150 SCT250 30/18 A2995 RMK AO2 SLP136 T03000183
KORD 070251Z 10004KT 10SM FEW060 SCT250 29/18 A2997 RMK AO2 SLP142 T02940183 53009
KORD 070351Z 12003KT 10SM FEW060 29/19 A2998 RMK AO2 SLP145 T02890189
KORD 070451Z 00000KT 10SM FEW060 28/19 A2998 RMK AO2 SLP145 T02830194
KORD 070551Z 22003KT 10SM CLR 27/19 A2997 RMK AO2 SLP142 T02720194 10322 20272 403500239 50000 $
KORD 070651Z 22004KT 10SM CLR 27/19 A2996 RMK AO2 SLP138 T02720194 $
KORD 070751Z 24004KT 10SM CLR 26/19 A2995 RMK AO2 SLP136 T02610194 $
KORD 070851Z 00000KT 10SM CLR 26/19 A2995 RMK AO2 SLP133 T02610194 56008 $
KORD 070951Z 00000KT 10SM CLR 26/20 A2996 RMK AO2 SLP137 T02560200 $
KORD 071051Z 27003KT 10SM FEW200 FEW250 25/20 A2997 RMK AO2 SLP143 T02500200 $
KORD 071151Z 29003KT 10SM SCT250 27/21 A2998 RMK AO2 SLP145 T02720206 10272 20244 51010 $
KORD 071251Z 30003KT 10SM FEW250 29/21 A2999 RMK AO2 SLP146 T02940211 $



Page loaded:  13:43 UTC  |   06:43 AM Pacific  |   07:43 AM Mountain  |   08:43 AM Central  |   09:43 AM Eastern

 

ADVISORIES

FORECASTS

FORECASTS

OBSERVATIONS

USER TOOLS

ABOUT US